Time;durP1;ratioP1;P1;durP2;ratioP2;P2;SDS_P1;SDS_P2;PMS_P1;PMS_P2;Temp;Humidity;BMP_temperature;BMP_pressure;BME280_temperature;BME280_humidity;BME280_pressure;Samples;Min_cycle;Max_cycle;Signal;HPM_P1;HPM_P2
2021/08/30 00:02:14;;;;;;;7.55;4.60;;;;;;;-140.79;100.00;63287.88;5314907;23;20058;-79
2021/08/30 00:04:39;;;;;;;6.95;4.97;;;;;;;-140.79;100.00;63287.88;4966447;28;20043;-79
2021/08/30 00:07:05;;;;;;;6.28;4.95;;;;;;;-140.79;100.00;63287.88;4966639;28;20062;-80
2021/08/30 00:09:30;;;;;;;6.35;4.68;;;;;;;-140.79;100.00;63287.88;4968876;28;20042;-79
2021/08/30 00:11:56;;;;;;;6.38;4.43;;;;;;;-140.79;100.00;63287.88;4980250;28;20038;-79
2021/08/30 00:14:22;;;;;;;5.75;4.60;;;;;;;-140.79;100.00;63287.88;4988440;28;20534;-80
2021/08/30 00:16:47;;;;;;;6.38;4.70;;;;;;;-140.79;100.00;63287.88;4986177;28;20026;-80
2021/08/30 00:19:13;;;;;;;6.75;5.05;;;;;;;-140.79;100.00;63287.88;4987540;28;20041;-82
2021/08/30 00:21:38;;;;;;;8.10;4.72;;;;;;;-140.79;100.00;63287.88;4970922;28;20026;-82
2021/08/30 00:24:04;;;;;;;6.95;4.55;;;;;;;-140.79;100.00;63287.88;4968707;28;20057;-82
2021/08/30 00:26:30;;;;;;;6.13;4.70;;;;;;;-140.79;100.00;63287.88;4968629;28;20089;-82
2021/08/30 00:28:55;;;;;;;6.20;4.50;;;;;;;-140.79;100.00;63287.88;4968874;28;20137;-82
2021/08/30 00:31:21;;;;;;;7.78;5.57;;;;;;;-140.79;100.00;63287.88;4966516;28;20026;-82
2021/08/30 00:33:46;;;;;;;6.40;4.85;;;;;;;-140.79;100.00;63287.88;4969435;28;20042;-82
2021/08/30 00:36:12;;;;;;;6.63;4.70;;;;;;;-140.79;100.00;63287.88;4969419;28;20113;-82
2021/08/30 00:38:37;;;;;;;6.82;4.82;;;;;;;-140.79;100.00;63287.88;4968519;28;20034;-81
2021/08/30 00:41:03;;;;;;;6.68;5.10;;;;;;;-140.79;100.00;63287.88;4969415;28;20030;-82
2021/08/30 00:43:28;;;;;;;6.70;5.00;;;;;;;-140.79;100.00;63287.88;4967731;28;20023;-82
2021/08/30 00:45:53;;;;;;;8.05;5.25;;;;;;;-140.79;100.00;63287.88;4966881;28;20038;-81
2021/08/30 00:48:19;;;;;;;5.95;4.35;;;;;;;-140.79;100.00;63287.88;4968658;28;20031;-81
2021/08/30 00:50:44;;;;;;;6.65;4.80;;;;;;;-140.79;100.00;63287.88;4967756;28;20560;-81
2021/08/30 00:53:10;;;;;;;7.07;4.88;;;;;;;-140.79;100.00;63287.88;4968093;28;20030;-81
2021/08/30 00:55:36;;;;;;;8.02;5.35;;;;;;;-140.79;100.00;63287.88;4968976;28;20473;-80
2021/08/30 00:58:02;;;;;;;6.07;4.60;;;;;;;-140.79;100.00;63287.88;4966763;28;20045;-80
2021/08/30 01:00:28;;;;;;;6.30;4.47;;;;;;;-140.79;100.00;63287.88;4967138;28;20062;-80
2021/08/30 01:02:53;;;;;;;6.85;4.85;;;;;;;-140.79;100.00;63287.88;4965618;28;20047;-80
2021/08/30 01:05:19;;;;;;;6.78;4.93;;;;;;;-140.79;100.00;63287.88;4966677;28;20034;-80
2021/08/30 01:08:08;;;;;;;5.55;4.45;;;;;;;-140.79;100.00;63287.88;4964937;28;20081;-80
2021/08/30 01:10:50;;;;;;;6.00;4.63;;;;;;;-140.79;100.00;63287.88;4963659;28;20094;-80
2021/08/30 01:13:24;;;;;;;5.53;4.35;;;;;;;-140.79;100.00;63287.88;4946656;28;20078;-80
2021/08/30 01:15:49;;;;;;;6.72;4.57;;;;;;;-140.79;100.00;63287.88;4967002;28;20034;-81
2021/08/30 01:18:19;;;;;;;7.05;4.78;;;;;;;-140.79;100.00;63287.88;4966171;28;20041;-80
2021/08/30 01:20:58;;;;;;;6.03;4.25;;;;;;;-140.79;100.00;63287.88;4965796;28;20034;-79
2021/08/30 01:23:24;;;;;;;6.78;4.15;;;;;;;-140.79;100.00;63287.88;4950280;28;20042;-80
2021/08/30 01:25:51;;;;;;;5.35;4.18;;;;;;;-140.79;100.00;63287.88;4965931;28;20038;-78
2021/08/30 01:28:16;;;;;;;5.68;4.32;;;;;;;-140.79;100.00;63287.88;4966030;28;20035;-80
2021/08/30 01:30:42;;;;;;;6.53;4.50;;;;;;;-140.79;100.00;63287.88;4967948;28;20437;-80
2021/08/30 01:33:07;;;;;;;5.70;4.03;;;;;;;-140.79;100.00;63287.88;4966439;28;20417;-80
2021/08/30 01:35:33;;;;;;;7.75;4.13;;;;;;;-140.79;100.00;63287.88;4966818;28;20513;-81
2021/08/30 01:38:00;;;;;;;6.43;4.50;;;;;;;-140.79;100.00;63287.88;4950781;28;20085;-81
2021/08/30 01:40:30;;;;;;;6.22;4.25;;;;;;;-140.79;100.00;63287.88;4965855;28;20068;-80
2021/08/30 01:42:57;;;;;;;5.30;3.95;;;;;;;-140.79;100.00;63287.88;4966751;28;20559;-80
2021/08/30 01:45:23;;;;;;;6.32;4.00;;;;;;;-140.79;100.00;63287.88;4966256;28;20043;-80
2021/08/30 01:47:50;;;;;;;6.07;4.35;;;;;;;-140.79;100.00;63287.88;4964796;28;20049;-79
2021/08/30 01:50:18;;;;;;;5.07;3.70;;;;;;;-140.79;100.00;63287.88;4968342;28;20132;-80
2021/08/30 01:52:43;;;;;;;4.50;3.35;;;;;;;-140.79;100.00;63287.88;4966807;28;20033;-80
2021/08/30 02:03:23;;;;;;;5.45;3.78;;;;;;;-140.79;100.00;63287.88;4966145;28;20062;-80
2021/08/30 02:05:56;;;;;;;7.80;3.83;;;;;;;-140.79;100.00;63287.88;4967386;28;20049;-79
2021/08/30 02:08:23;;;;;;;4.68;3.50;;;;;;;-140.79;100.00;63287.88;4966095;28;20023;-80
2021/08/30 02:10:49;;;;;;;5.00;3.50;;;;;;;-140.79;100.00;63287.88;4967262;28;20105;-80
2021/08/30 02:13:15;;;;;;;6.13;3.38;;;;;;;-140.79;100.00;63287.88;4965057;28;20027;-80
2021/08/30 02:15:41;;;;;;;5.47;3.72;;;;;;;-140.79;100.00;63287.88;4986338;28;20097;-79
2021/08/30 02:18:26;;;;;;;5.43;3.95;;;;;;;-140.79;100.00;63287.88;4986045;28;20022;-80
2021/08/30 02:21:23;;;;;;;5.05;3.08;;;;;;;-140.79;100.00;63287.88;4970456;28;20152;-79
2021/08/30 02:24:08;;;;;;;4.45;3.05;;;;;;;-140.79;100.00;63287.88;4958205;28;20043;-79
2021/08/30 02:27:21;;;;;;;5.47;2.97;;;;;;;-140.79;100.00;63287.88;4965447;28;20943;-80
2021/08/30 02:29:58;;;;;;;4.80;2.80;;;;;;;-140.79;100.00;63287.88;4962166;28;20422;-80
2021/08/30 02:32:23;;;;;;;3.95;2.90;;;;;;;-140.79;100.00;63287.88;4966833;28;20120;-80
2021/08/30 02:34:51;;;;;;;3.92;2.75;;;;;;;-140.79;100.00;63287.88;4966091;28;20039;-79
2021/08/30 02:37:16;;;;;;;4.85;3.40;;;;;;;-140.79;100.00;63287.88;4967166;28;20417;-80
2021/08/30 02:39:47;;;;;;;4.68;3.10;;;;;;;-140.79;100.00;63287.88;4965910;28;20039;-80
2021/08/30 02:42:12;;;;;;;3.50;2.63;;;;;;;-140.79;100.00;63287.88;4950388;28;20042;-80
2021/08/30 02:44:38;;;;;;;4.85;2.95;;;;;;;-140.79;100.00;63287.88;4963590;28;20034;-78
2021/08/30 02:47:03;;;;;;;4.05;2.80;;;;;;;-140.79;100.00;63287.88;4964323;28;20043;-78
2021/08/30 02:49:29;;;;;;;3.97;2.70;;;;;;;-140.79;100.00;63287.88;4964408;28;20063;-78
2021/08/30 02:51:54;;;;;;;5.97;2.80;;;;;;;-140.79;100.00;63287.88;4977773;28;20042;-78
2021/08/30 02:54:20;;;;;;;3.95;2.72;;;;;;;-140.79;100.00;63287.88;4983978;28;20022;-77
2021/08/30 02:56:46;;;;;;;4.93;3.17;;;;;;;-140.79;100.00;63287.88;4968275;28;20481;-77
2021/08/30 02:59:12;;;;;;;3.45;2.55;;;;;;;-140.79;100.00;63287.88;4984934;28;20065;-77
2021/08/30 03:01:38;;;;;;;4.03;2.80;;;;;;;-140.79;100.00;63287.88;4984393;28;20041;-78
2021/08/30 03:04:03;;;;;;;3.38;2.38;;;;;;;-140.79;100.00;63287.88;4984831;28;20042;-79
2021/08/30 03:06:29;;;;;;;5.70;2.80;;;;;;;-140.79;100.00;63287.88;4979353;28;20034;-82
2021/08/30 03:08:54;;;;;;;4.07;2.30;;;;;;;-140.79;100.00;63287.88;4985770;28;20092;-82
2021/08/30 03:11:21;;;;;;;4.18;2.70;;;;;;;-140.79;100.00;63287.88;4987841;28;20038;-82
2021/08/30 03:13:46;;;;;;;3.85;2.45;;;;;;;-140.79;100.00;63287.88;4984054;28;20050;-81
2021/08/30 03:16:12;;;;;;;4.40;2.53;;;;;;;-140.79;100.00;63287.88;4953693;28;20041;-81
2021/08/30 03:18:41;;;;;;;3.40;2.63;;;;;;;-140.79;100.00;63287.88;4967854;28;20030;-81
2021/08/30 03:21:06;;;;;;;3.30;2.38;;;;;;;-140.79;100.00;63287.88;4970400;28;20550;-81
2021/08/30 03:23:32;;;;;;;4.25;2.47;;;;;;;-140.79;100.00;63287.88;4978561;28;20038;-79
2021/08/30 03:25:57;;;;;;;3.95;2.40;;;;;;;-140.79;100.00;63287.88;4971646;28;20531;-78
2021/08/30 03:28:23;;;;;;;3.97;2.20;;;;;;;-140.79;100.00;63287.88;4988722;28;20026;-79
2021/08/30 03:30:51;;;;;;;5.05;2.45;;;;;;;-140.79;100.00;63287.88;4988178;28;20752;-79
2021/08/30 03:33:16;;;;;;;3.83;2.63;;;;;;;-140.79;100.00;63287.88;4985362;28;20501;-79
2021/08/30 03:35:42;;;;;;;3.17;2.30;;;;;;;-140.79;100.00;63287.88;4969405;28;20081;-79
2021/08/30 03:38:07;;;;;;;3.92;2.65;;;;;;;-140.79;100.00;63287.88;4968514;28;20031;-79
2021/08/30 03:40:33;;;;;;;3.65;2.08;;;;;;;-140.79;100.00;63287.88;4968585;28;20174;-78
2021/08/30 03:42:58;;;;;;;3.05;2.20;;;;;;;-140.79;100.00;63287.88;4969503;28;20030;-79
2021/08/30 03:45:26;;;;;;;3.80;2.40;;;;;;;-140.79;100.00;63287.88;4967976;28;20042;-79
2021/08/30 03:47:52;;;;;;;4.07;2.38;;;;;;;-140.79;100.00;63287.88;4967694;28;20513;-78
2021/08/30 03:50:17;;;;;;;3.47;2.33;;;;;;;-140.79;100.00;63287.88;4966587;28;20130;-78
2021/08/30 03:52:43;;;;;;;3.85;2.50;;;;;;;-140.79;100.00;63287.88;4952321;28;20038;-78
2021/08/30 03:55:10;;;;;;;3.60;2.38;;;;;;;-140.79;100.00;63287.88;4968155;28;20038;-78
2021/08/30 03:57:36;;;;;;;3.15;2.25;;;;;;;-140.79;100.00;63287.88;4968355;28;20042;-78
2021/08/30 04:00:04;;;;;;;4.68;2.28;;;;;;;-140.79;100.00;63287.88;4967987;28;20085;-78
2021/08/30 04:02:30;;;;;;;3.85;2.40;;;;;;;-140.79;100.00;63287.88;4966975;28;20468;-78
2021/08/30 04:04:55;;;;;;;3.45;2.50;;;;;;;-140.79;100.00;63287.88;4967774;28;20049;-80
2021/08/30 04:07:21;;;;;;;4.32;2.60;;;;;;;-140.79;100.00;63287.88;4967218;28;20464;-79
2021/08/30 04:09:50;;;;;;;4.68;2.55;;;;;;;-140.79;100.00;63287.88;4967373;28;20129;-81
2021/08/30 04:12:15;;;;;;;4.15;2.60;;;;;;;-140.79;100.00;63287.88;4967952;28;20043;-79
2021/08/30 04:14:41;;;;;;;3.25;2.50;;;;;;;-140.79;100.00;63287.88;4950300;28;20039;-78
2021/08/30 04:17:06;;;;;;;3.85;2.60;;;;;;;-140.79;100.00;63287.88;4967481;28;20019;-78
2021/08/30 04:19:32;;;;;;;4.25;3.00;;;;;;;-140.79;100.00;63287.88;4967377;28;20108;-78
2021/08/30 04:21:57;;;;;;;4.28;2.92;;;;;;;-140.79;100.00;63287.88;4965527;28;20035;-78
2021/08/30 04:24:23;;;;;;;4.93;2.95;;;;;;;-140.79;100.00;63287.88;4967637;28;20034;-79
2021/08/30 04:26:48;;;;;;;4.03;2.67;;;;;;;-140.79;100.00;63287.88;4968450;28;20042;-81
2021/08/30 04:29:13;;;;;;;4.38;2.40;;;;;;;-140.79;100.00;63287.88;4967648;28;20038;-77
2021/08/30 04:31:39;;;;;;;3.17;2.58;;;;;;;-140.79;100.00;63287.88;4966712;28;20034;-76
2021/08/30 04:34:04;;;;;;;3.92;2.72;;;;;;;-140.79;100.00;63287.88;4966736;28;20251;-77
2021/08/30 04:36:30;;;;;;;3.95;2.47;;;;;;;-140.79;100.00;63287.88;4968738;28;20027;-79
2021/08/30 04:38:55;;;;;;;4.03;2.65;;;;;;;-140.79;100.00;63287.88;4965978;28;20027;-82
2021/08/30 04:41:21;;;;;;;5.07;2.72;;;;;;;-140.79;100.00;63287.88;4982478;28;20031;-79
2021/08/30 04:43:46;;;;;;;4.85;2.78;;;;;;;-140.79;100.00;63287.88;4971055;28;20042;-80
2021/08/30 04:46:12;;;;;;;5.00;2.53;;;;;;;-140.79;100.00;63287.88;4969755;28;20421;-79
2021/08/30 04:48:37;;;;;;;3.75;2.80;;;;;;;-140.79;100.00;63287.88;4981560;28;20022;-77
2021/08/30 04:51:03;;;;;;;5.07;2.90;;;;;;;-140.79;100.00;63287.88;4982180;28;20041;-78
2021/08/30 04:53:28;;;;;;;4.82;2.53;;;;;;;-140.79;100.00;63287.88;4984153;28;20106;-78
2021/08/30 04:55:54;;;;;;;4.65;2.88;;;;;;;-140.79;100.00;63287.88;4989792;28;20028;-77
2021/08/30 04:58:19;;;;;;;3.53;2.67;;;;;;;-140.79;100.00;63287.88;4976713;28;20059;-77
2021/08/30 05:00:45;;;;;;;3.80;3.03;;;;;;;-140.79;100.00;63287.88;4968181;28;20030;-78
2021/08/30 05:03:10;;;;;;;4.53;2.65;;;;;;;-140.79;100.00;63287.88;4981581;28;20055;-75
2021/08/30 05:05:35;;;;;;;4.38;2.90;;;;;;;-140.79;100.00;63287.88;4967460;28;20394;-78
2021/08/30 05:08:01;;;;;;;5.03;3.20;;;;;;;-140.79;100.00;63287.88;4967668;28;20061;-76
2021/08/30 05:10:26;;;;;;;4.63;3.05;;;;;;;-140.79;100.00;63287.88;4967203;28;20026;-79
2021/08/30 05:12:52;;;;;;;7.35;3.70;;;;;;;-140.79;100.00;63287.88;4967364;28;20031;-78
2021/08/30 05:15:17;;;;;;;5.70;2.83;;;;;;;-140.79;100.00;63287.88;4979276;28;20568;-82
2021/08/30 05:17:43;;;;;;;4.88;3.03;;;;;;;-140.79;100.00;63287.88;4981645;28;20038;-83
2021/08/30 05:20:09;;;;;;;4.93;3.00;;;;;;;-140.79;100.00;63287.88;4974689;28;20037;-82
2021/08/30 05:22:34;;;;;;;4.20;2.90;;;;;;;-140.79;100.00;63287.88;4983731;28;20037;-78
2021/08/30 05:25:00;;;;;;;4.05;2.97;;;;;;;-140.79;100.00;63287.88;4980402;28;20014;-77
2021/08/30 05:27:25;;;;;;;5.03;2.85;;;;;;;-140.79;100.00;63287.88;4984308;28;20053;-76
2021/08/30 05:29:51;;;;;;;5.80;2.80;;;;;;;-140.79;100.00;63287.88;4982895;28;20022;-77
2021/08/30 05:32:16;;;;;;;4.63;3.00;;;;;;;-140.79;100.00;63287.88;4984955;28;20702;-77
2021/08/30 05:34:42;;;;;;;4.38;2.80;;;;;;;-140.79;100.00;63287.88;4968134;28;20073;-78
2021/08/30 05:37:08;;;;;;;7.65;3.60;;;;;;;-140.79;100.00;63287.88;4983747;28;20040;-78
2021/08/30 05:39:33;;;;;;;5.63;3.08;;;;;;;-140.79;100.00;63287.88;4983693;28;20022;-76
2021/08/30 05:41:59;;;;;;;4.57;3.15;;;;;;;-140.79;100.00;63287.88;4980307;28;20057;-81
2021/08/30 05:44:24;;;;;;;4.95;3.05;;;;;;;-140.79;100.00;63287.88;4980997;28;20026;-82
2021/08/30 05:46:50;;;;;;;4.65;2.60;;;;;;;-140.79;100.00;63287.88;4983826;28;20030;-77
2021/08/30 05:49:16;;;;;;;5.05;3.15;;;;;;;-140.79;100.00;63287.88;4981733;28;20034;-76
2021/08/30 05:51:41;;;;;;;3.53;2.97;;;;;;;-140.79;100.00;63287.88;4980074;28;20105;-75
2021/08/30 05:54:07;;;;;;;4.43;3.10;;;;;;;-140.79;100.00;63287.88;4981275;28;20042;-82
2021/08/30 05:56:32;;;;;;;4.68;3.10;;;;;;;-140.79;100.00;63287.88;4984460;28;20014;-82
2021/08/30 05:58:58;;;;;;;4.38;2.85;;;;;;;-140.79;100.00;63287.88;4981586;28;20048;-76
2021/08/30 06:01:23;;;;;;;5.50;3.10;;;;;;;-140.79;100.00;63287.88;4983928;28;20030;-75
2021/08/30 06:03:49;;;;;;;6.00;2.97;;;;;;;-140.79;100.00;63287.88;4982420;28;20053;-75
2021/08/30 06:06:14;;;;;;;5.20;3.13;;;;;;;-140.79;100.00;63287.88;4983191;28;20022;-76
2021/08/30 06:08:39;;;;;;;4.78;3.00;;;;;;;-140.79;100.00;63287.88;4983793;28;20027;-78
2021/08/30 06:11:05;;;;;;;3.63;2.80;;;;;;;-140.79;100.00;63287.88;4984012;28;20133;-75
2021/08/30 06:13:30;;;;;;;5.00;3.13;;;;;;;-140.79;100.00;63287.88;4985167;28;20022;-77
2021/08/30 06:15:56;;;;;;;4.45;2.90;;;;;;;-140.79;100.00;63287.88;4980366;28;20026;-77
2021/08/30 06:18:21;;;;;;;7.80;3.45;;;;;;;-140.79;100.00;63287.88;4981006;28;20023;-79
2021/08/30 06:20:47;;;;;;;11.75;3.60;;;;;;;-140.79;100.00;63287.88;4983753;28;20480;-74
2021/08/30 06:23:12;;;;;;;4.45;2.80;;;;;;;-140.79;100.00;63287.88;4968004;28;20015;-77
2021/08/30 06:25:38;;;;;;;8.00;3.45;;;;;;;-140.79;100.00;63287.88;4965399;28;20081;-83
2021/08/30 06:28:03;;;;;;;5.18;3.15;;;;;;;-140.79;100.00;63287.88;4951173;28;20042;-85
2021/08/30 06:30:29;;;;;;;5.70;3.80;;;;;;;-140.79;100.00;63287.88;4966491;28;20065;-77
2021/08/30 06:32:54;;;;;;;11.95;3.50;;;;;;;-140.79;100.00;63287.88;4948465;28;20038;-77
2021/08/30 06:35:20;;;;;;;8.75;3.75;;;;;;;-140.79;100.00;63287.88;4982326;28;20471;-74
2021/08/30 06:37:46;;;;;;;8.20;4.05;;;;;;;-140.79;100.00;63287.88;4962569;28;20526;-83
2021/08/30 06:40:12;;;;;;;7.13;3.90;;;;;;;-140.79;100.00;63287.88;4963206;28;20034;-83
2021/08/30 06:42:37;;;;;;;6.95;3.67;;;;;;;-140.79;100.00;63287.88;4967501;28;20525;-81
2021/08/30 06:45:03;;;;;;;5.03;2.80;;;;;;;-140.79;100.00;63287.88;4966534;28;20110;-76
2021/08/30 06:47:29;;;;;;;5.18;3.20;;;;;;;-140.79;100.00;63287.88;4962123;28;20035;-74
2021/08/30 06:49:54;;;;;;;7.40;3.03;;;;;;;-140.79;100.00;63287.88;4981237;28;20076;-75
2021/08/30 06:52:20;;;;;;;5.38;3.60;;;;;;;-140.79;100.00;63287.88;4970172;28;20034;-76
2021/08/30 06:54:45;;;;;;;6.75;3.50;;;;;;;-140.79;100.00;63287.88;4988135;28;20030;-75
2021/08/30 06:57:11;;;;;;;10.32;3.75;;;;;;;-140.79;100.00;63287.88;4986688;28;20006;-75
2021/08/30 06:59:36;;;;;;;9.45;3.45;;;;;;;-140.79;100.00;63287.88;4981192;28;20030;-76
2021/08/30 07:02:02;;;;;;;5.70;3.10;;;;;;;-140.79;100.00;63287.88;4986576;28;20514;-76
2021/08/30 07:04:27;;;;;;;7.05;3.50;;;;;;;-140.79;100.00;63287.88;4984362;28;20448;-76
2021/08/30 07:06:53;;;;;;;6.38;3.03;;;;;;;-140.79;100.00;63287.88;4973523;28;20346;-73
2021/08/30 07:09:18;;;;;;;6.47;3.05;;;;;;;-140.79;100.00;63287.88;4984155;28;20030;-73
2021/08/30 07:11:44;;;;;;;6.68;3.60;;;;;;;-140.79;100.00;63287.88;4984146;28;20467;-73
2021/08/30 07:14:09;;;;;;;8.20;3.13;;;;;;;-140.79;100.00;63287.88;4982746;28;20014;-72
2021/08/30 07:16:35;;;;;;;4.72;3.20;;;;;;;-140.79;100.00;63287.88;4964837;28;20073;-76
2021/08/30 07:19:00;;;;;;;4.80;2.83;;;;;;;-140.79;100.00;63287.88;4981540;28;20113;-78
2021/08/30 07:21:28;;;;;;;6.90;3.45;;;;;;;-140.79;100.00;63287.88;4985245;28;20513;-79
2021/08/30 07:23:53;;;;;;;5.43;3.40;;;;;;;-140.79;100.00;63287.88;4986603;28;20463;-79
2021/08/30 07:26:19;;;;;;;6.50;2.97;;;;;;;-140.79;100.00;63287.88;4986211;28;20092;-77
2021/08/30 07:28:44;;;;;;;5.50;2.88;;;;;;;-140.79;100.00;63287.88;4985149;28;20033;-79
2021/08/30 07:31:10;;;;;;;7.78;3.47;;;;;;;-140.79;100.00;63287.88;4985876;28;20818;-80
2021/08/30 07:33:35;;;;;;;7.82;3.13;;;;;;;-140.79;100.00;63287.88;4985549;28;20389;-80
2021/08/30 07:36:01;;;;;;;5.60;3.10;;;;;;;-140.79;100.00;63287.88;4937968;28;20046;-79
2021/08/30 07:38:26;;;;;;;4.78;2.85;;;;;;;-140.79;100.00;63287.88;4985986;28;20034;-80
2021/08/30 07:40:52;;;;;;;8.63;3.60;;;;;;;-140.79;100.00;63287.88;4983879;28;20030;-77
2021/08/30 07:43:17;;;;;;;5.32;3.13;;;;;;;-140.79;100.00;63287.88;4986285;28;20029;-77
2021/08/30 07:45:43;;;;;;;6.10;2.95;;;;;;;-140.79;100.00;63287.88;4940719;28;20058;-83
2021/08/30 07:48:08;;;;;;;4.80;3.15;;;;;;;-140.79;100.00;63287.88;4968439;28;20022;-83
2021/08/30 07:50:34;;;;;;;5.85;2.80;;;;;;;-140.79;100.00;63287.88;4985185;28;20585;-84
2021/08/30 07:52:59;;;;;;;8.15;3.58;;;;;;;-140.79;100.00;63287.88;4985060;28;20724;-79
2021/08/30 07:55:24;;;;;;;5.68;3.08;;;;;;;-140.79;100.00;63287.88;4985361;28;20022;-81
2021/08/30 07:57:50;;;;;;;5.20;2.92;;;;;;;-140.79;100.00;63287.88;4965727;28;20125;-80
2021/08/30 08:00:16;;;;;;;6.55;3.03;;;;;;;-140.79;100.00;63287.88;4981753;28;20037;-79
2021/08/30 08:02:41;;;;;;;5.07;3.05;;;;;;;-140.79;100.00;63287.88;4976747;28;20077;-75
2021/08/30 08:05:07;;;;;;;6.30;2.92;;;;;;;-140.79;100.00;63287.88;4984342;28;20057;-77
2021/08/30 08:07:32;;;;;;;5.38;2.88;;;;;;;-140.79;100.00;63287.88;4986299;28;20114;-76
2021/08/30 08:09:58;;;;;;;6.75;3.03;;;;;;;-140.79;100.00;63287.88;4979159;28;20837;-82
2021/08/30 08:12:23;;;;;;;5.15;3.13;;;;;;;-140.79;100.00;63287.88;4980140;28;20026;-89
2021/08/30 08:14:49;;;;;;;4.35;2.88;;;;;;;-140.79;100.00;63287.88;4940923;28;20030;-89
2021/08/30 08:17:14;;;;;;;5.13;2.72;;;;;;;-140.79;100.00;63287.88;4968837;28;20019;-87
2021/08/30 08:19:40;;;;;;;6.07;3.00;;;;;;;-140.79;100.00;63287.88;4970065;28;20018;-80
2021/08/30 08:22:05;;;;;;;6.13;3.38;;;;;;;-140.79;100.00;63287.88;4982584;28;20034;-82
2021/08/30 08:24:31;;;;;;;5.57;3.00;;;;;;;-140.79;100.00;63287.88;4978318;28;20096;-78
2021/08/30 08:26:56;;;;;;;6.72;3.38;;;;;;;-140.79;100.00;63287.88;4981199;28;20061;-74
2021/08/30 08:29:22;;;;;;;6.47;3.30;;;;;;;-140.79;100.00;63287.88;4986561;28;20080;-76
2021/08/30 08:31:48;;;;;;;6.15;3.20;;;;;;;-140.79;100.00;63287.88;4982208;28;20033;-78
2021/08/30 08:34:13;;;;;;;8.48;3.60;;;;;;;-140.79;100.00;63287.88;4963719;28;20026;-77
2021/08/30 08:36:40;;;;;;;9.02;3.03;;;;;;;-140.79;100.00;63287.88;4971443;28;20022;-79
2021/08/30 08:39:06;;;;;;;5.07;3.25;;;;;;;-140.79;100.00;63287.88;4967612;28;20037;-80
2021/08/30 08:41:34;;;;;;;5.65;3.33;;;;;;;-140.79;100.00;63287.88;4967943;28;20505;-77
2021/08/30 08:43:59;;;;;;;5.68;3.13;;;;;;;-140.79;100.00;63287.88;4972038;28;20040;-78
2021/08/30 08:46:27;;;;;;;4.78;3.00;;;;;;;-140.79;100.00;63287.88;4985558;28;20412;-80
2021/08/30 08:48:52;;;;;;;5.30;2.83;;;;;;;-140.79;100.00;63287.88;4941457;28;20056;-80
2021/08/30 08:51:18;;;;;;;6.75;3.20;;;;;;;-140.79;100.00;63287.88;4966248;28;20568;-81
2021/08/30 08:53:44;;;;;;;6.55;3.60;;;;;;;-140.79;100.00;63287.88;4957665;28;20133;-76
2021/08/30 08:56:17;;;;;;;6.65;3.70;;;;;;;-140.79;100.00;63287.88;4982268;28;20602;-76
2021/08/30 08:58:42;;;;;;;7.95;3.35;;;;;;;-140.79;100.00;63287.88;4983795;28;20038;-79
2021/08/30 09:01:12;;;;;;;7.03;3.53;;;;;;;-140.79;100.00;63287.88;4977601;28;20039;-76
2021/08/30 09:03:44;;;;;;;;;;;;;;;-140.79;100.00;63287.88;4977683;28;20053;-80
2021/08/30 09:06:10;;;;;;;7.82;3.97;;;;;;;-140.79;100.00;63287.88;4967587;28;19917;-80
2021/08/30 09:08:41;;;;;;;6.07;3.35;;;;;;;-140.79;100.00;63287.88;4966992;28;20027;-75
2021/08/30 09:11:18;;;;;;;5.20;3.42;;;;;;;-140.79;100.00;63287.88;4957377;28;20027;-72
2021/08/30 09:13:51;;;;;;;5.43;3.50;;;;;;;-140.79;100.00;63287.88;4965482;28;20022;-78
2021/08/30 09:16:20;;;;;;;4.95;3.65;;;;;;;-140.79;100.00;63287.88;4979781;28;20038;-80
2021/08/30 09:18:46;;;;;;;5.18;3.50;;;;;;;-140.79;100.00;63287.88;4963972;28;20039;-80
2021/08/30 09:21:11;;;;;;;5.15;3.35;;;;;;;-140.79;100.00;63287.88;4948572;28;20053;-78
2021/08/30 09:23:38;;;;;;;4.18;3.55;;;;;;;-140.79;100.00;63287.88;4967076;28;20025;-80
2021/08/30 09:26:04;;;;;;;5.75;3.83;;;;;;;-140.79;100.00;63287.88;4974998;28;20414;-81
2021/08/30 09:28:33;;;;;;;11.55;3.70;;;;;;;-140.79;100.00;63287.88;4970471;28;20029;-77
2021/08/30 09:31:00;;;;;;;6.87;3.83;;;;;;;-140.79;100.00;63287.88;4984766;28;20034;-78
2021/08/30 09:33:25;;;;;;;6.60;3.90;;;;;;;-140.79;100.00;63287.88;4962257;28;20037;-80
2021/08/30 09:35:58;;;;;;;5.95;3.83;;;;;;;-140.79;100.00;63287.88;4967937;28;20018;-76
2021/08/30 09:38:24;;;;;;;6.50;4.07;;;;;;;-140.79;100.00;63287.88;4979274;28;20033;-76
2021/08/30 09:40:49;;;;;;;6.32;3.65;;;;;;;-140.79;100.00;63287.88;4983056;28;20026;-75
2021/08/30 09:43:19;;;;;;;6.20;4.18;;;;;;;-140.79;100.00;63287.88;4985733;28;20026;-75
2021/08/30 09:45:46;;;;;;;5.80;4.10;;;;;;;-140.79;100.00;63287.88;4984751;28;20512;-80
2021/08/30 09:48:14;;;;;;;8.05;3.90;;;;;;;-140.79;100.00;63287.88;4981941;28;20026;-78
2021/08/30 09:50:43;;;;;;;5.45;3.85;;;;;;;-140.79;100.00;63287.88;4965511;28;20787;-78
2021/08/30 09:53:08;;;;;;;5.95;3.80;;;;;;;-140.79;100.00;63287.88;4982914;28;20022;-77
2021/08/30 09:55:36;;;;;;;5.97;3.58;;;;;;;-140.79;100.00;63287.88;4983911;28;20049;-77
2021/08/30 09:58:02;;;;;;;7.40;3.70;;;;;;;-140.79;100.00;63287.88;4981254;28;20497;-76
2021/08/30 10:00:27;;;;;;;5.05;3.70;;;;;;;-140.79;100.00;63287.88;4981658;28;20117;-75
2021/08/30 10:02:58;;;;;;;5.97;3.97;;;;;;;-140.79;100.00;63287.88;4967435;28;20047;-76
2021/08/30 10:05:24;;;;;;;5.90;4.03;;;;;;;-140.79;100.00;63287.88;4966840;28;20058;-80
2021/08/30 10:07:53;;;;;;;6.68;3.85;;;;;;;-140.79;100.00;63287.88;4966043;28;20162;-75
2021/08/30 10:10:18;;;;;;;5.63;4.10;;;;;;;-140.79;100.00;63287.88;4967876;28;20508;-77
2021/08/30 10:12:44;;;;;;;6.03;4.10;;;;;;;-140.79;100.00;63287.88;4968102;28;20031;-78
2021/08/30 10:15:10;;;;;;;5.65;4.00;;;;;;;-140.79;100.00;63287.88;4951628;28;20022;-78
2021/08/30 10:17:43;;;;;;;6.85;4.03;;;;;;;-140.79;100.00;63287.88;4967974;28;20093;-80
2021/08/30 10:20:13;;;;;;;9.18;3.97;;;;;;;-140.79;100.00;63287.88;4969009;28;20025;-77
2021/08/30 10:22:38;;;;;;;5.85;3.83;;;;;;;-140.79;100.00;63287.88;4981273;28;20460;-77
2021/08/30 10:25:16;;;;;;;5.82;4.00;;;;;;;-140.79;100.00;63287.88;4966574;28;20039;-80
2021/08/30 10:27:52;;;;;;;6.82;3.58;;;;;;;-140.79;100.00;63287.88;4966599;28;20034;-85
2021/08/30 10:30:18;;;;;;;5.22;3.70;;;;;;;-140.79;100.00;63287.88;4969190;28;20109;-80
2021/08/30 10:32:44;;;;;;;6.40;4.07;;;;;;;-140.79;100.00;63287.88;4969597;28;20769;-83
2021/08/30 10:35:20;;;;;;;8.05;4.03;;;;;;;-140.79;100.00;63287.88;4971247;28;20026;-77
2021/08/30 10:37:56;;;;;;;8.55;3.90;;;;;;;-140.79;100.00;63287.88;4967451;28;20444;-77
2021/08/30 10:40:22;;;;;;;6.75;3.85;;;;;;;-140.79;100.00;63287.88;4972166;28;20582;-77
2021/08/30 10:43:15;;;;;;;7.40;3.83;;;;;;;-140.79;100.00;63287.88;4976536;28;20035;-77
2021/08/30 10:45:42;;;;;;;6.22;4.05;;;;;;;-140.79;100.00;63287.88;4967799;28;20049;-77
2021/08/30 10:48:13;;;;;;;6.65;3.70;;;;;;;-140.79;100.00;63287.88;4965372;28;20035;-74
2021/08/30 10:50:40;;;;;;;5.07;3.80;;;;;;;-140.79;100.00;63287.88;4968873;28;20027;-76
2021/08/30 10:53:07;;;;;;;4.60;3.60;;;;;;;-140.79;100.00;63287.88;4966021;28;20069;-76
2021/08/30 10:55:40;;;;;;;7.43;3.70;;;;;;;-140.79;100.00;63287.88;4972077;28;20026;-82
2021/08/30 10:58:10;;;;;;;5.93;3.67;;;;;;;-140.79;100.00;63287.88;4951326;28;20035;-80
2021/08/30 11:00:36;;;;;;;5.00;3.80;;;;;;;-140.79;100.00;63287.88;4966810;28;20027;-81
2021/08/30 11:03:01;;;;;;;4.85;3.45;;;;;;;-140.79;100.00;63287.88;4968244;28;20681;-81
2021/08/30 11:05:28;;;;;;;6.80;3.60;;;;;;;-140.79;100.00;63287.88;4968236;28;20022;-81
2021/08/30 11:07:54;;;;;;;6.25;3.90;;;;;;;-140.79;100.00;63287.88;4975243;28;20030;-81
2021/08/30 11:14:11;;;;;;;7.28;4.10;;;;;;;27.82;35.42;94712.06;5082289;27;20126;-79
2021/08/30 11:16:37;;;;;;;;;;;;;;;27.77;35.20;94709.47;5080188;28;20086;-79
2021/08/30 11:19:07;;;;;;;4.82;3.60;;;;;;;27.73;35.29;94708.38;5075673;28;19913;-79
2021/08/30 11:21:35;;;;;;;5.05;3.83;;;;;;;27.68;34.72;94712.03;5045321;28;20012;-79